Time;durP1;ratioP1;P1;durP2;ratioP2;P2;SDS_P1;SDS_P2;PMS_P1;PMS_P2;Temp;Humidity;BMP_temperature;BMP_pressure;BME280_temperature;BME280_humidity;BME280_pressure;Samples;Min_cycle;Max_cycle;Signal;HPM_P1;HPM_P2
2022/08/17 00:09:39;;;;;;;1999.90;999.90;;;22.20;99.90;;;;;;6682286;88;20685;-77
2022/08/17 00:19:39;;;;;;;1999.90;999.90;;;22.20;99.90;;;;;;6681897;88;20317;-77
2022/08/17 00:29:41;;;;;;;1999.90;999.90;;;22.30;99.90;;;;;;6679550;88;20254;-77
2022/08/17 00:39:42;;;;;;;1999.90;999.90;;;22.40;99.90;;;;;;6681744;88;20737;-78
2022/08/17 00:49:43;;;;;;;1999.90;999.90;;;22.40;99.90;;;;;;6677503;88;20207;-77
2022/08/17 00:59:50;;;;;;;1999.90;999.90;;;22.40;99.90;;;;;;6678106;88;20232;-77
2022/08/17 01:09:52;;;;;;;1999.90;999.90;;;22.30;99.90;;;;;;6682881;88;20316;-77
2022/08/17 01:19:52;;;;;;;1999.90;999.90;;;22.30;99.90;;;;;;6682152;88;20370;-77
2022/08/17 01:29:57;;;;;;;1999.90;999.90;;;22.40;99.90;;;;;;6677740;88;20186;-77
2022/08/17 01:40:13;;;;;;;1999.90;999.90;;;22.10;99.90;;;;;;6676558;88;21011;-77
2022/08/17 01:50:22;;;;;;;1999.90;999.90;;;22.00;99.90;;;;;;6679368;88;20319;-77
2022/08/17 02:00:23;;;;;;;1999.90;999.90;;;22.00;99.90;;;;;;6682322;88;20240;-77
2022/08/17 02:10:23;;;;;;;1999.90;999.90;;;21.70;99.90;;;;;;6680477;88;20198;-77
2022/08/17 02:20:24;;;;;;;1999.90;999.90;;;21.30;99.90;;;;;;6685181;88;20226;-77
2022/08/17 02:30:25;;;;;;;1999.90;999.90;;;21.20;99.90;;;;;;6677402;88;20179;-77
2022/08/17 02:40:25;;;;;;;1999.90;999.90;;;21.20;99.90;;;;;;6682336;88;20202;-77
2022/08/17 02:50:26;;;;;;;1999.90;999.90;;;21.00;99.90;;;;;;6689302;88;20743;-78
2022/08/17 03:00:32;;;;;;;1999.90;999.90;;;20.80;99.90;;;;;;6685120;88;20199;-76
2022/08/17 03:10:33;;;;;;;1999.90;999.90;;;20.80;99.90;;;;;;6681724;88;20605;-77
2022/08/17 03:20:35;;;;;;;1999.90;999.90;;;20.70;99.90;;;;;;6684485;88;20211;-76
2022/08/17 03:30:37;;;;;;;1999.90;999.90;;;20.70;99.90;;;;;;6680047;88;20188;-76
2022/08/17 03:40:38;;;;;;;1999.90;999.90;;;20.70;99.90;;;;;;6680673;88;20207;-76
2022/08/17 04:00:58;;;;;;;1999.90;999.90;;;20.90;99.90;;;;;;6681686;88;20230;-77
2022/08/17 04:11:00;;;;;;;1999.90;999.90;;;21.00;99.90;;;;;;6679660;88;20225;-77
2022/08/17 04:21:00;;;;;;;1999.90;999.90;;;21.00;99.90;;;;;;6677486;88;20238;-77
2022/08/17 04:31:01;;;;;;;1999.90;999.90;;;21.10;99.90;;;;;;6674761;88;20212;-77
2022/08/17 04:51:30;;;;;;;1999.90;999.90;;;21.40;99.90;;;;;;6678264;88;20184;-77
2022/08/17 05:01:35;;;;;;;1999.90;999.90;;;21.40;99.90;;;;;;6683212;88;20603;-77
2022/08/17 05:11:36;;;;;;;1999.90;999.90;;;21.40;99.90;;;;;;6681308;88;20879;-77
2022/08/17 05:21:37;;;;;;;1999.90;999.90;;;21.50;99.90;;;;;;6684716;88;20240;-78
2022/08/17 05:51:54;;;;;;;1999.90;999.90;;;21.60;99.90;;;;;;6726790;88;20217;-80
2022/08/17 06:02:29;;;;;;;1999.90;999.90;;;21.90;99.90;;;;;;6733814;88;20192;-80
2022/08/17 06:12:49;;;;;;;1999.90;999.90;;;22.20;99.90;;;;;;6713575;88;20251;-78
2022/08/17 06:22:55;;;;;;;1999.90;999.90;;;22.60;99.90;;;;;;6709146;88;20198;-79
2022/08/17 06:33:07;;;;;;;1999.90;999.90;;;22.70;99.90;;;;;;6708120;88;20186;-79
2022/08/17 06:43:17;;;;;;;1999.90;999.90;;;22.90;99.90;;;;;;6708869;88;20202;-79
2022/08/17 06:53:31;;;;;;;1999.90;999.90;;;22.90;99.90;;;;;;6706609;88;20202;-79
2022/08/17 07:03:53;;;;;;;1999.90;999.90;;;23.10;99.90;;;;;;6719305;88;20807;-80
2022/08/17 07:14:02;;;;;;;1999.90;999.90;;;23.40;99.90;;;;;;6712333;88;20195;-79
2022/08/17 07:24:25;;;;;;;1999.90;999.90;;;24.40;99.90;;;;;;6711739;88;20191;-80
2022/08/17 07:34:26;;;;;;;1999.90;999.90;;;25.00;99.90;;;;;;6711304;88;20189;-79
2022/08/17 07:44:26;;;;;;;1999.90;999.90;;;25.10;99.90;;;;;;6708693;88;20206;-80
2022/08/17 07:54:32;;;;;;;1999.90;999.90;;;25.00;99.90;;;;;;6707323;88;20251;-79
2022/08/17 08:04:45;;;;;;;1999.90;999.90;;;25.10;99.90;;;;;;6710122;88;20210;-78
2022/08/17 08:15:17;;;;;;;1999.90;999.90;;;25.00;99.90;;;;;;6707848;88;20690;-79
2022/08/17 08:25:35;;;;;;;1999.90;999.90;;;24.90;99.90;;;;;;6713008;88;20212;-79
2022/08/17 08:35:44;;;;;;;1999.90;999.90;;;24.70;99.90;;;;;;6711004;88;20178;-79
2022/08/17 08:46:06;;;;;;;1999.90;999.90;;;24.30;99.90;;;;;;6710716;88;20287;-80
2022/08/17 08:56:34;;;;;;;1999.90;999.90;;;24.20;99.90;;;;;;6711666;88;20190;-80
2022/08/17 09:06:57;;;;;;;1999.90;999.90;;;24.10;99.90;;;;;;6710466;88;20654;-79
2022/08/17 09:17:07;;;;;;;1999.90;999.90;;;24.10;99.90;;;;;;6710599;88;20240;-79
2022/08/17 09:27:16;;;;;;;1999.90;999.90;;;24.00;99.90;;;;;;6708077;88;20659;-80
2022/08/17 09:37:46;;;;;;;1999.90;999.90;;;23.70;99.90;;;;;;6707835;88;20178;-79
2022/08/17 09:48:03;;;;;;;1999.90;999.90;;;23.90;99.90;;;;;;6709713;88;20308;-80
2022/08/17 09:58:19;;;;;;;1999.90;999.90;;;24.70;99.90;;;;;;6712692;88;20352;-79
2022/08/17 10:08:24;;;;;;;1999.90;999.90;;;26.30;99.90;;;;;;6707220;88;20182;-80
2022/08/17 10:18:33;;;;;;;1999.90;999.90;;;25.80;99.90;;;;;;6713941;88;20231;-81
2022/08/17 10:28:58;;;;;;;1999.90;999.90;;;26.70;99.90;;;;;;6726432;88;20171;-80
2022/08/17 10:39:26;;;;;;;1999.90;999.90;;;29.00;98.20;;;;;;6713532;88;20704;-79
2022/08/17 10:49:33;;;;;;;1999.90;999.90;;;29.30;96.20;;;;;;6711575;88;20207;-80
2022/08/17 10:59:34;;;;;;;1999.90;999.90;;;29.10;95.80;;;;;;6714199;88;20409;-80
2022/08/17 11:10:07;;;;;;;1999.90;999.90;;;28.10;96.50;;;;;;6713459;88;20723;-79
2022/08/17 11:20:40;;;;;;;1999.90;999.90;;;27.50;97.30;;;;;;6719967;88;20211;-79
2022/08/17 11:30:43;;;;;;;;;;;27.20;97.70;;;;;;6706975;88;20200;-78
2022/08/17 11:41:25;;;;;;;1999.90;999.90;;;27.70;97.60;;;;;;6709935;88;20524;-78
2022/08/17 11:51:58;;;;;;;1999.90;999.90;;;28.00;96.80;;;;;;6713030;88;20200;-80
2022/08/17 12:02:01;;;;;;;1999.90;999.90;;;30.20;95.30;;;;;;6711199;88;20655;-80
2022/08/17 12:12:08;;;;;;;1999.90;999.90;;;31.40;93.50;;;;;;6704740;88;20285;-83
2022/08/17 12:22:30;;;;;;;1999.90;999.90;;;31.60;92.60;;;;;;6708936;88;20171;-79
2022/08/17 12:32:33;;;;;;;1999.90;999.90;;;31.80;91.60;;;;;;6727135;88;20195;-80
2022/08/17 12:42:38;;;;;;;1999.90;999.90;;;32.50;90.60;;;;;;6726087;88;20209;-81
2022/08/17 12:52:41;;;;;;;1999.90;999.90;;;32.40;90.90;;;;;;6725795;88;20235;-80
2022/08/17 13:02:56;;;;;;;1999.90;999.90;;;32.70;90.30;;;;;;6709390;88;20182;-79
2022/08/17 13:13:02;;;;;;;1999.90;999.90;;;30.40;91.40;;;;;;6709932;88;20283;-80
2022/08/17 13:23:08;;;;;;;1999.90;999.90;;;31.20;91.20;;;;;;6709817;88;20538;-78
2022/08/17 13:33:24;;;;;;;1999.90;999.90;;;30.30;91.80;;;;;;6708660;88;20253;-79
2022/08/17 13:43:45;;;;;;;1999.90;999.90;;;30.10;91.90;;;;;;6710135;88;20275;-79
2022/08/17 13:53:53;;;;;;;1999.90;999.90;;;30.80;92.10;;;;;;6718165;88;20305;-79
2022/08/17 14:03:54;;;;;;;1999.90;999.90;;;31.00;91.40;;;;;;6709915;88;20250;-79
2022/08/17 14:13:55;;;;;;;1999.90;999.90;;;29.50;92.40;;;;;;6708069;88;20252;-78
2022/08/17 14:23:56;;;;;;;1999.90;999.90;;;29.20;93.10;;;;;;6712304;88;20235;-79
2022/08/17 14:33:57;;;;;;;1999.90;999.90;;;30.40;92.70;;;;;;6709703;88;20227;-82
2022/08/17 14:43:58;;;;;;;1999.90;999.90;;;29.80;93.10;;;;;;6710460;88;20630;-79
2022/08/17 14:53:58;;;;;;;1999.90;999.90;;;30.10;93.10;;;;;;6709179;88;20341;-80
2022/08/17 15:03:59;;;;;;;1999.90;999.90;;;29.60;93.60;;;;;;6709522;88;20194;-77
2022/08/17 15:14:00;;;;;;;1999.90;999.90;;;29.90;93.20;;;;;;6705883;88;20820;-81
2022/08/17 15:24:03;;;;;;;1999.90;999.90;;;30.30;93.00;;;;;;6718950;88;20209;-82
2022/08/17 15:45:12;;;;;;;1999.90;999.90;;;30.00;92.60;;;;;;6718146;88;20193;-81
2022/08/17 15:55:14;;;;;;;1999.90;999.90;;;30.30;92.10;;;;;;6701367;88;20170;-81
2022/08/17 16:05:20;;;;;;;1999.90;999.90;;;30.30;92.30;;;;;;6709884;88;20174;-80
2022/08/17 16:15:21;;;;;;;1999.90;999.90;;;30.70;91.80;;;;;;6715854;88;20199;-78
2022/08/17 16:25:29;;;;;;;1999.90;999.90;;;30.20;91.80;;;;;;6701248;88;20219;-79
2022/08/17 16:35:30;;;;;;;1999.90;999.90;;;29.10;91.80;;;;;;6695545;88;21004;-78
2022/08/17 16:45:35;;;;;;;1999.90;999.90;;;28.70;93.40;;;;;;6716721;88;20197;-78
2022/08/17 16:55:36;;;;;;;1999.90;999.90;;;28.60;92.50;;;;;;6708368;88;20753;-77
2022/08/17 17:05:54;;;;;;;1999.90;999.90;;;28.60;92.40;;;;;;6708418;88;20198;-77
2022/08/17 17:16:10;;;;;;;1999.90;999.90;;;28.40;92.40;;;;;;6706106;88;20213;-77
2022/08/17 17:26:17;;;;;;;1999.90;999.90;;;27.90;92.40;;;;;;6713498;88;20169;-78
2022/08/17 17:36:37;;;;;;;1999.90;999.90;;;28.00;93.10;;;;;;6705870;88;20712;-78
2022/08/17 17:46:42;;;;;;;1999.90;999.90;;;28.10;92.20;;;;;;6732757;77;20275;-78
2022/08/17 17:56:53;;;;;;;1999.90;999.90;;;27.90;92.60;;;;;;6750916;88;20184;-80
2022/08/17 18:07:05;;;;;;;1999.90;999.90;;;26.80;94.10;;;;;;6758833;88;20180;-80
2022/08/17 18:17:05;;;;;;;1999.90;999.90;;;26.60;94.50;;;;;;6762004;88;20246;-81
2022/08/17 18:27:23;;;;;;;1999.90;999.90;;;26.30;95.10;;;;;;6765557;88;20572;-82
2022/08/17 18:37:52;;;;;;;1999.90;999.90;;;26.00;96.00;;;;;;6749977;88;20263;-83
2022/08/17 18:47:54;;;;;;;1999.90;999.90;;;25.70;96.80;;;;;;6739842;88;20173;-82
2022/08/17 18:57:58;;;;;;;1999.90;999.90;;;25.40;97.60;;;;;;6731245;88;20210;-83
2022/08/17 19:08:17;;;;;;;1999.90;999.90;;;25.00;99.10;;;;;;6733017;88;20219;-81
2022/08/17 19:18:22;;;;;;;1999.90;999.90;;;24.80;99.90;;;;;;6755471;88;20214;-81
2022/08/17 19:28:43;;;;;;;1999.90;999.90;;;24.70;99.90;;;;;;6758264;88;20193;-81
2022/08/17 19:39:03;;;;;;;1999.90;999.90;;;24.60;99.90;;;;;;6737278;88;20223;-81
2022/08/17 19:49:26;;;;;;;1999.90;999.90;;;24.40;99.90;;;;;;6735879;88;20200;-79
2022/08/17 20:00:12;;;;;;;1999.90;999.90;;;24.20;99.90;;;;;;6731513;88;20296;-81
2022/08/17 20:10:40;;;;;;;1999.90;999.90;;;24.10;99.90;;;;;;6734231;88;20189;-81
2022/08/17 20:20:49;;;;;;;1999.90;999.90;;;24.00;99.90;;;;;;6752331;88;20337;-80
2022/08/17 20:30:51;;;;;;;1999.90;999.90;;;24.00;99.90;;;;;;6740266;88;20193;-77
2022/08/17 20:40:55;;;;;;;1999.90;999.90;;;23.80;99.90;;;;;;6737457;88;20289;-79
2022/08/17 20:51:08;;;;;;;1999.90;999.90;;;23.60;99.90;;;;;;6737554;88;20221;-77
2022/08/17 21:01:11;;;;;;;1999.90;999.90;;;23.40;99.90;;;;;;6738031;88;20178;-77
2022/08/17 21:11:35;;;;;;;1999.90;999.90;;;23.10;99.90;;;;;;6735444;88;20215;-79
2022/08/17 21:22:04;;;;;;;1999.90;999.90;;;22.90;99.90;;;;;;6741020;88;20202;-80
2022/08/17 21:32:05;;;;;;;1999.90;999.90;;;22.60;99.90;;;;;;6739030;88;20184;-79
2022/08/17 21:42:06;;;;;;;1999.90;999.90;;;22.50;99.90;;;;;;6743569;88;21155;-80
2022/08/17 21:52:11;;;;;;;1999.90;999.90;;;22.40;99.90;;;;;;6748827;88;20180;-78
2022/08/17 22:02:19;;;;;;;1999.90;999.90;;;22.40;99.90;;;;;;6726956;88;20250;-80
2022/08/17 22:12:23;;;;;;;1999.90;999.90;;;21.90;99.90;;;;;;6742715;88;20236;-80
2022/08/17 22:33:41;;;;;;;1999.90;999.90;;;21.90;99.90;;;;;;6736986;88;20255;-79
2022/08/17 22:43:42;;;;;;;1999.90;999.90;;;21.80;99.90;;;;;;6720430;88;20218;-80
2022/08/17 23:04:37;;;;;;;1999.90;999.90;;;21.60;99.90;;;;;;6733378;88;20251;-79
2022/08/17 23:14:40;;;;;;;1999.90;999.90;;;21.60;99.90;;;;;;6728078;88;20186;-79
2022/08/17 23:24:47;;;;;;;1999.90;999.90;;;21.60;99.90;;;;;;6724694;88;20226;-78
2022/08/17 23:34:49;;;;;;;1999.90;999.90;;;21.50;99.90;;;;;;6725673;88;20196;-79
2022/08/17 23:54:54;;;;;;;1999.90;999.90;;;21.40;99.90;;;;;;6750311;88;20911;-80
